createdAt,value
2018-06-19T00:00:23.927Z,19.69
2018-06-19T00:01:23.953Z,19.63
2018-06-19T00:03:16.885Z,19.62
2018-06-19T00:04:16.888Z,19.56
2018-06-19T00:06:09.802Z,19.62
2018-06-19T00:07:09.832Z,19.54
2018-06-19T00:09:02.759Z,19.51
2018-06-19T00:10:02.763Z,19.50
2018-06-19T00:11:55.701Z,19.46
2018-06-19T00:12:55.702Z,19.48
2018-06-19T00:14:48.620Z,19.48
2018-06-19T00:15:48.647Z,19.54
2018-06-19T00:17:41.580Z,19.46
2018-06-19T00:18:41.580Z,19.47
2018-06-19T00:20:34.501Z,19.39
2018-06-19T00:21:34.525Z,19.33
2018-06-19T00:23:27.458Z,19.32
2018-06-19T00:24:27.459Z,19.37
2018-06-19T00:26:20.370Z,19.31
2018-06-19T00:27:20.394Z,19.29
2018-06-19T00:29:13.328Z,19.31
2018-06-19T00:30:13.330Z,19.28
2018-06-19T00:32:06.270Z,19.23
2018-06-19T00:33:06.275Z,19.21
2018-06-19T00:34:59.184Z,19.18
2018-06-19T00:35:59.209Z,19.21
2018-06-19T00:37:52.147Z,19.10
2018-06-19T00:38:52.153Z,18.98
2018-06-19T00:40:45.059Z,18.99
2018-06-19T00:41:45.093Z,18.99
2018-06-19T00:43:38.028Z,18.95
2018-06-19T00:44:38.020Z,18.92
2018-06-19T00:46:30.934Z,18.88
2018-06-19T00:47:30.957Z,18.88
2018-06-19T00:49:23.902Z,18.88
2018-06-19T00:50:23.902Z,18.90
2018-06-19T00:52:16.840Z,18.80
2018-06-19T00:53:16.845Z,18.76
2018-06-19T00:55:09.755Z,18.75
2018-06-19T00:56:09.778Z,18.75
2018-06-19T00:58:02.713Z,18.80
2018-06-19T00:59:02.722Z,18.73
2018-06-19T01:00:55.631Z,18.65
2018-06-19T01:01:55.655Z,18.67
2018-06-19T01:03:48.586Z,18.58
2018-06-19T01:04:48.590Z,18.58
2018-06-19T01:06:41.501Z,18.69
2018-06-19T01:07:41.524Z,18.60
2018-06-19T01:09:34.461Z,18.63
2018-06-19T01:10:34.462Z,18.60
2018-06-19T01:12:27.394Z,18.50
2018-06-19T01:13:27.399Z,18.45
2018-06-19T01:15:20.317Z,18.44
2018-06-19T01:16:20.341Z,18.32
2018-06-19T01:18:13.277Z,18.35
2018-06-19T01:19:13.279Z,18.32
2018-06-19T01:21:06.190Z,18.23
2018-06-19T01:22:06.213Z,18.25
2018-06-19T01:23:59.147Z,18.32
2018-06-19T01:24:59.150Z,18.27
2018-06-19T01:26:52.064Z,18.32
2018-06-19T01:27:52.088Z,18.26
2018-06-19T01:29:45.019Z,18.26
2018-06-19T01:30:45.023Z,18.12
2018-06-19T01:32:37.951Z,18.11
2018-06-19T01:33:37.956Z,18.17
2018-06-19T01:35:30.872Z,18.12
2018-06-19T01:36:30.892Z,18.23
2018-06-19T01:38:23.829Z,18.27
2018-06-19T01:39:23.837Z,18.25
2018-06-19T01:41:16.745Z,18.33
2018-06-19T01:42:16.768Z,18.26
2018-06-19T01:44:09.704Z,18.41
2018-06-19T01:45:09.705Z,18.37
2018-06-19T01:47:02.619Z,18.47
2018-06-19T01:48:02.641Z,18.47
2018-06-19T01:49:55.578Z,18.41
2018-06-19T01:50:55.576Z,18.42
2018-06-19T01:52:48.489Z,18.48
2018-06-19T01:53:48.512Z,18.41
2018-06-19T01:55:41.447Z,18.39
2018-06-19T01:56:41.451Z,18.32
2018-06-19T01:58:34.399Z,18.35
2018-06-19T01:59:34.384Z,18.41
2018-06-19T02:01:27.299Z,18.39
2018-06-19T02:02:27.325Z,18.44
2018-06-19T02:04:20.257Z,18.45
2018-06-19T02:05:20.260Z,18.42
2018-06-19T02:07:13.174Z,18.47
2018-06-19T02:08:13.196Z,18.45
2018-06-19T02:10:06.131Z,18.55
2018-06-19T02:11:06.152Z,18.51
2018-06-19T02:12:59.047Z,18.55
2018-06-19T02:13:59.072Z,18.67
2018-06-19T02:15:52.008Z,18.58
2018-06-19T02:16:52.010Z,18.62
2018-06-19T02:18:44.924Z,18.67
2018-06-19T02:19:44.948Z,18.70
2018-06-19T02:21:37.880Z,18.66
2018-06-19T02:22:37.880Z,18.66
2018-06-19T02:24:30.827Z,18.72
2018-06-19T02:25:30.826Z,18.80
2018-06-19T02:27:24.732Z,18.84
2018-06-19T02:28:24.754Z,18.91
2018-06-19T02:30:17.689Z,18.90
2018-06-19T02:31:17.696Z,18.84
2018-06-19T02:33:10.606Z,18.85
2018-06-19T02:34:10.629Z,18.95
2018-06-19T02:36:04.559Z,18.91
2018-06-19T02:37:04.561Z,18.92
2018-06-19T02:38:57.476Z,18.98
2018-06-19T02:39:57.498Z,18.98
2018-06-19T02:41:50.446Z,18.98
2018-06-19T02:42:50.448Z,18.88
2018-06-19T02:44:43.377Z,18.85
2018-06-19T02:45:43.378Z,18.85
2018-06-19T02:47:36.292Z,18.82
2018-06-19T02:48:36.315Z,18.75
2018-06-19T02:50:29.255Z,18.81
2018-06-19T02:51:29.260Z,18.87
2018-06-19T02:53:22.180Z,18.91
2018-06-19T02:54:22.206Z,18.84
2018-06-19T02:56:15.143Z,18.85
2018-06-19T02:57:15.142Z,18.82
2018-06-19T02:59:08.057Z,18.84
2018-06-19T03:00:08.088Z,18.90
2018-06-19T03:02:01.019Z,18.85
2018-06-19T03:03:01.023Z,18.88
2018-06-19T03:04:54.997Z,18.87
2018-06-19T03:05:55.017Z,18.90
2018-06-19T03:07:47.952Z,18.85
2018-06-19T03:08:47.954Z,18.84
2018-06-19T03:10:41.884Z,18.98
2018-06-19T03:11:41.888Z,18.98
2018-06-19T03:13:34.806Z,18.91
2018-06-19T03:14:34.834Z,18.99
2018-06-19T03:16:27.763Z,18.99
2018-06-19T03:17:27.767Z,18.99
2018-06-19T03:19:20.685Z,18.92
2018-06-19T03:20:20.709Z,18.94
2018-06-19T03:22:13.648Z,18.98
2018-06-19T03:23:13.646Z,19.00
2018-06-19T03:25:06.559Z,18.99
2018-06-19T03:26:06.581Z,19.02
2018-06-19T03:27:59.531Z,18.98
2018-06-19T03:28:59.526Z,18.99
2018-06-19T03:30:52.461Z,18.95
2018-06-19T03:31:52.464Z,19.06
2018-06-19T03:33:45.382Z,19.00
2018-06-19T03:34:45.401Z,18.99
2018-06-19T03:36:38.333Z,19.07
2018-06-19T03:37:38.335Z,19.07
2018-06-19T03:39:31.249Z,19.14
2018-06-19T03:40:31.272Z,19.06
2018-06-19T03:42:24.209Z,19.08
2018-06-19T03:43:24.218Z,19.11
2018-06-19T03:45:17.122Z,19.00
2018-06-19T03:46:17.150Z,19.04
2018-06-19T03:48:10.082Z,19.04
2018-06-19T03:49:10.089Z,18.94
2018-06-19T03:51:03.003Z,19.08
2018-06-19T03:52:03.030Z,18.92
2018-06-19T03:53:55.963Z,19.00
2018-06-19T03:54:55.964Z,19.00
2018-06-19T03:56:48.898Z,19.04
2018-06-19T03:57:48.902Z,19.00
2018-06-19T03:59:41.817Z,18.95
2018-06-19T04:00:41.840Z,19.06
2018-06-19T04:02:34.774Z,18.94
2018-06-19T04:03:34.776Z,18.94
2018-06-19T04:05:27.691Z,18.95
2018-06-19T04:06:27.712Z,18.95
2018-06-19T04:08:20.649Z,18.88
2018-06-19T04:09:20.657Z,18.85
2018-06-19T04:11:13.575Z,18.90
2018-06-19T04:12:13.596Z,18.90
2018-06-19T04:14:06.524Z,18.94
2018-06-19T04:15:06.528Z,18.95
2018-06-19T04:16:59.475Z,18.84
2018-06-19T04:17:59.464Z,18.82
2018-06-19T04:19:52.380Z,18.84
2018-06-19T04:20:52.403Z,18.80
2018-06-19T04:22:45.337Z,18.81
2018-06-19T04:23:45.340Z,18.98
2018-06-19T04:25:38.255Z,19.00
2018-06-19T04:26:38.277Z,19.06
2018-06-19T04:28:31.214Z,18.95
2018-06-19T04:29:31.217Z,18.95
2018-06-19T04:31:24.128Z,18.95
2018-06-19T04:32:24.157Z,18.94
2018-06-19T04:34:17.087Z,19.00
2018-06-19T04:35:17.133Z,19.00
2018-06-19T04:37:10.001Z,19.10
2018-06-19T04:38:10.025Z,19.11
2018-06-19T04:40:02.958Z,19.07
2018-06-19T04:41:02.961Z,19.08
2018-06-19T04:42:55.878Z,19.11
2018-06-19T04:43:55.902Z,19.16
2018-06-19T04:45:48.845Z,19.23
2018-06-19T04:46:48.845Z,19.22
2018-06-19T04:48:41.777Z,19.19
2018-06-19T04:49:41.819Z,19.26
2018-06-19T04:51:34.692Z,19.31
2018-06-19T04:52:34.716Z,19.29
2018-06-19T04:54:27.651Z,19.36
2018-06-19T04:55:27.653Z,19.39
2018-06-19T04:57:20.564Z,19.44
2018-06-19T04:58:20.588Z,19.31
2018-06-19T05:00:13.525Z,19.40
2018-06-19T05:01:13.527Z,19.39
2018-06-19T05:03:06.442Z,19.48
2018-06-19T05:04:06.464Z,19.37
2018-06-19T05:05:59.398Z,19.32
2018-06-19T05:06:59.401Z,19.44
2018-06-19T05:08:52.337Z,19.48
2018-06-19T05:09:52.346Z,19.40
2018-06-19T05:11:45.254Z,19.46
2018-06-19T05:12:45.302Z,19.37
2018-06-19T05:14:38.221Z,19.41
2018-06-19T05:15:38.224Z,19.37
2018-06-19T05:17:31.135Z,19.36
2018-06-19T05:18:31.164Z,19.31
2018-06-19T05:20:24.098Z,19.33
2018-06-19T05:21:24.099Z,19.31
2018-06-19T05:23:17.022Z,19.46
2018-06-19T05:24:17.045Z,19.37
2018-06-19T05:26:09.984Z,19.39
2018-06-19T05:27:09.991Z,19.46
2018-06-19T05:29:02.905Z,19.37
2018-06-19T05:30:02.929Z,19.43
2018-06-19T05:31:55.864Z,19.51
2018-06-19T05:32:55.872Z,19.58
2018-06-19T05:34:48.805Z,19.56
2018-06-19T05:35:48.812Z,19.68
2018-06-19T05:37:41.722Z,19.71
2018-06-19T05:38:41.746Z,19.88
2018-06-19T05:40:34.809Z,19.96
2018-06-19T05:41:34.811Z,19.94
2018-06-19T05:43:27.732Z,19.94
2018-06-19T05:44:27.757Z,19.96
2018-06-19T05:46:20.731Z,19.95
2018-06-19T05:47:20.702Z,19.95
2018-06-19T05:49:13.614Z,19.96
2018-06-19T05:50:13.639Z,19.92
2018-06-19T05:52:06.583Z,19.94
2018-06-19T05:53:06.588Z,20.01
2018-06-19T05:54:59.522Z,20.06
2018-06-19T05:55:59.526Z,20.14
2018-06-19T05:57:52.442Z,20.11
2018-06-19T05:58:52.466Z,20.16
2018-06-19T06:00:45.412Z,20.26
2018-06-19T06:01:45.415Z,20.26
2018-06-19T06:03:38.332Z,20.17
2018-06-19T06:04:38.361Z,20.16
2018-06-19T06:06:31.296Z,20.26
2018-06-19T06:07:31.303Z,20.20
2018-06-19T06:09:24.218Z,20.13
2018-06-19T06:10:24.246Z,20.13
2018-06-19T06:12:17.178Z,20.11
2018-06-19T06:13:17.192Z,20.16
2018-06-19T06:15:10.140Z,20.23
2018-06-19T06:16:10.130Z,20.20
2018-06-19T06:18:03.044Z,20.23
2018-06-19T06:19:03.073Z,20.32
2018-06-19T06:20:56.006Z,20.17
2018-06-19T06:21:56.014Z,20.18
2018-06-19T06:23:48.928Z,20.20
2018-06-19T06:24:48.957Z,20.23
2018-06-19T06:26:41.890Z,20.20
2018-06-19T06:27:41.899Z,20.29
2018-06-19T06:29:34.812Z,20.24
2018-06-19T06:30:34.843Z,20.17
2018-06-19T06:32:27.773Z,20.29
2018-06-19T06:33:27.781Z,20.16
2018-06-19T06:35:20.696Z,20.16
2018-06-19T06:36:20.720Z,20.24
2018-06-19T06:38:13.666Z,20.23
2018-06-19T06:39:13.668Z,20.21
2018-06-19T06:41:06.607Z,20.14
2018-06-19T06:42:06.613Z,20.13
2018-06-19T06:43:59.529Z,19.99
2018-06-19T06:44:59.557Z,20.01
2018-06-19T06:46:52.498Z,19.94
2018-06-19T06:47:52.498Z,19.95
2018-06-19T06:49:45.423Z,19.88
2018-06-19T06:50:45.448Z,19.91
2018-06-19T06:52:38.395Z,19.95
2018-06-19T06:53:38.395Z,19.94
2018-06-19T06:55:31.315Z,19.95
2018-06-19T06:56:31.343Z,19.96
2018-06-19T06:58:24.276Z,19.95
2018-06-19T06:59:24.288Z,19.98
2018-06-19T07:01:17.294Z,20.16
2018-06-19T07:02:17.227Z,20.17
2018-06-19T07:04:10.140Z,20.16
2018-06-19T07:05:10.169Z,20.29
2018-06-19T07:07:03.104Z,20.14
2018-06-19T07:08:03.111Z,20.21
2018-06-19T07:09:56.056Z,20.35
2018-06-19T07:10:56.055Z,20.31
2018-06-19T07:12:48.991Z,20.29
2018-06-19T07:13:48.997Z,20.41
2018-06-19T07:15:41.930Z,20.43
2018-06-19T07:16:41.942Z,20.51
2018-06-19T07:18:34.882Z,20.55
2018-06-19T07:19:34.887Z,20.73
2018-06-19T07:21:27.804Z,20.89
2018-06-19T07:22:27.877Z,20.99
2018-06-19T07:24:20.767Z,21.17
2018-06-19T07:25:20.776Z,21.27
2018-06-19T07:27:13.720Z,21.25
2018-06-19T07:28:13.722Z,21.40
2018-06-19T07:30:06.640Z,21.38
2018-06-19T07:31:06.668Z,21.44
2018-06-19T07:32:59.607Z,21.53
2018-06-19T07:33:59.613Z,21.54
2018-06-19T07:35:52.531Z,21.67
2018-06-19T07:36:52.676Z,21.65
2018-06-19T07:38:45.506Z,21.77
2018-06-19T07:39:45.509Z,21.77
2018-06-19T07:41:38.430Z,21.79
2018-06-19T07:42:38.455Z,21.82
2018-06-19T07:44:31.395Z,21.80
2018-06-19T07:45:31.403Z,21.86
2018-06-19T07:47:24.324Z,21.82
2018-06-19T07:48:24.351Z,21.82
2018-06-19T07:50:17.299Z,21.92
2018-06-19T07:51:17.300Z,21.92
2018-06-19T07:53:10.248Z,21.80
2018-06-19T07:54:10.248Z,21.91
2018-06-19T07:56:03.168Z,21.96
2018-06-19T07:57:03.196Z,21.98
2018-06-19T07:58:56.144Z,22.00
2018-06-19T07:59:56.143Z,22.00
2018-06-19T08:01:49.064Z,21.83
2018-06-19T08:02:49.093Z,21.80
2018-06-19T08:04:42.037Z,21.80
2018-06-19T08:05:42.039Z,21.65
2018-06-19T08:07:34.957Z,21.68
2018-06-19T08:08:34.989Z,21.53
2018-06-19T08:10:27.923Z,21.56
2018-06-19T08:11:27.933Z,21.56
2018-06-19T08:13:20.933Z,21.64
2018-06-19T08:14:20.879Z,21.59
2018-06-19T08:16:13.814Z,21.79
2018-06-19T08:17:13.822Z,21.82
2018-06-19T08:19:06.763Z,21.69
2018-06-19T08:20:06.769Z,21.86
2018-06-19T08:21:59.685Z,21.80
2018-06-19T08:22:59.714Z,21.91
2018-06-19T08:24:52.653Z,22.00
2018-06-19T08:25:52.661Z,21.94
2018-06-19T08:27:45.578Z,22.17
2018-06-19T08:28:45.607Z,22.03
2018-06-19T08:30:38.544Z,22.02
2018-06-19T08:31:38.552Z,22.00
2018-06-19T08:33:31.471Z,22.10
2018-06-19T08:34:31.498Z,22.15
2018-06-19T08:36:24.438Z,22.06
2018-06-19T08:37:24.445Z,22.02
2018-06-19T08:39:17.406Z,21.83
2018-06-19T08:40:17.394Z,21.90
2018-06-19T08:42:10.320Z,21.94
2018-06-19T08:43:10.342Z,22.00
2018-06-19T08:45:03.296Z,22.02
2018-06-19T08:46:03.297Z,22.02
2018-06-19T08:47:56.270Z,22.10
2018-06-19T08:48:56.250Z,22.20
2018-06-19T08:50:49.198Z,22.21
2018-06-19T08:51:49.200Z,22.22
2018-06-19T08:53:42.123Z,22.22
2018-06-19T08:54:42.150Z,22.22
2018-06-19T08:56:35.096Z,22.22
2018-06-19T08:57:35.096Z,22.25
2018-06-19T08:59:28.025Z,22.27
2018-06-19T09:00:28.050Z,22.28
2018-06-19T09:02:21.000Z,22.30
2018-06-19T09:03:21.005Z,22.27
2018-06-19T09:05:13.956Z,22.28
2018-06-19T09:06:13.961Z,22.25
2018-06-19T09:08:06.877Z,22.27
2018-06-19T09:09:06.905Z,22.24
2018-06-19T09:10:59.851Z,22.22
2018-06-19T09:11:59.852Z,22.22
2018-06-19T09:13:52.774Z,22.31
2018-06-19T09:14:52.801Z,22.30
2018-06-19T09:16:45.742Z,22.28
2018-06-19T09:17:45.746Z,22.33
2018-06-19T09:19:38.667Z,22.46
2018-06-19T09:20:38.694Z,22.51
2018-06-19T09:22:31.636Z,22.61
2018-06-19T09:23:31.643Z,22.58
2018-06-19T09:25:24.583Z,22.75
2018-06-19T09:26:24.593Z,22.88
2018-06-19T09:28:17.537Z,22.76
2018-06-19T09:29:17.541Z,22.47
2018-06-19T09:31:10.488Z,22.52
2018-06-19T09:32:10.490Z,22.43
2018-06-19T09:34:03.415Z,22.24
2018-06-19T09:35:03.441Z,22.31
2018-06-19T09:36:56.397Z,22.21
2018-06-19T09:37:56.391Z,22.27
2018-06-19T09:39:49.320Z,22.27
2018-06-19T09:40:49.338Z,22.30
2018-06-19T09:42:42.289Z,22.52
2018-06-19T09:43:42.292Z,22.70
2018-06-19T09:45:35.214Z,22.76
2018-06-19T09:46:35.242Z,22.85
2018-06-19T09:48:28.190Z,22.90
2018-06-19T09:49:28.192Z,22.91
2018-06-19T09:51:21.119Z,22.91
2018-06-19T09:52:21.146Z,22.79
2018-06-19T09:54:14.095Z,22.83
2018-06-19T09:55:14.104Z,22.92
2018-06-19T09:57:07.057Z,23.00
2018-06-19T09:58:07.054Z,23.00
2018-06-19T09:59:59.978Z,23.17
2018-06-19T10:01:00.005Z,23.25
2018-06-19T10:02:52.955Z,22.90
2018-06-19T10:03:52.962Z,22.90
2018-06-19T10:05:45.944Z,22.98
2018-06-19T10:06:45.917Z,22.90
2018-06-19T10:08:38.867Z,22.90
2018-06-19T10:09:38.868Z,22.92
2018-06-19T10:11:31.799Z,22.95
2018-06-19T10:12:31.824Z,23.01
2018-06-19T10:14:24.773Z,22.97
2018-06-19T10:15:24.775Z,23.07
2018-06-19T10:17:17.730Z,23.10
2018-06-19T10:18:17.728Z,23.07
2018-06-19T10:20:10.654Z,23.16
2018-06-19T10:21:10.682Z,23.25
2018-06-19T10:23:03.630Z,23.22
2018-06-19T10:24:03.631Z,23.25
2018-06-19T10:25:56.608Z,23.27
2018-06-19T10:26:56.587Z,23.33
2018-06-19T10:28:49.539Z,23.40
2018-06-19T10:29:49.539Z,23.48
2018-06-19T10:31:42.469Z,23.70
2018-06-19T10:32:42.497Z,23.72
2018-06-19T10:34:35.449Z,23.97
2018-06-19T10:35:35.448Z,23.97
2018-06-19T10:37:28.376Z,24.13
2018-06-19T10:38:28.404Z,24.15
2018-06-19T10:40:21.386Z,24.28
2018-06-19T10:41:21.392Z,24.37
2018-06-19T10:43:14.337Z,24.22
2018-06-19T10:44:14.350Z,24.15
2018-06-19T10:46:07.768Z,24.09
2018-06-19T10:47:07.797Z,24.13
2018-06-19T10:49:00.747Z,24.27
2018-06-19T10:50:00.755Z,24.37
2018-06-19T10:51:53.686Z,24.49
2018-06-19T10:52:53.718Z,24.52
2018-06-19T10:54:46.665Z,24.62
2018-06-19T10:55:46.672Z,24.53
2018-06-19T10:57:39.597Z,24.37
2018-06-19T10:58:39.628Z,24.52
2018-06-19T11:00:32.573Z,24.61
2018-06-19T11:01:32.582Z,24.61
2018-06-19T11:03:25.509Z,24.68
2018-06-19T11:04:25.536Z,24.52
2018-06-19T11:06:18.516Z,24.68
2018-06-19T11:07:18.584Z,24.73
2018-06-19T11:09:11.446Z,24.81
2018-06-19T11:10:11.453Z,24.91
2018-06-19T11:12:04.386Z,25.02
2018-06-19T11:13:04.414Z,25.03
2018-06-19T11:14:57.360Z,24.90
2018-06-19T11:15:57.371Z,24.90
2018-06-19T11:17:50.301Z,24.90
2018-06-19T11:18:50.332Z,24.93
2018-06-19T11:20:43.275Z,24.93
2018-06-19T11:21:43.288Z,24.95
2018-06-19T11:23:36.215Z,24.83
2018-06-19T11:24:36.247Z,24.87
2018-06-19T11:26:29.197Z,24.73
2018-06-19T11:27:29.206Z,24.78
2018-06-19T11:29:22.168Z,24.60
2018-06-19T11:30:22.163Z,24.69
2018-06-19T11:32:15.092Z,24.77
2018-06-19T11:33:15.124Z,24.84
2018-06-19T11:35:08.075Z,24.88
2018-06-19T11:36:08.084Z,24.88
2018-06-19T11:38:01.017Z,25.15
2018-06-19T11:39:01.049Z,25.18
2018-06-19T11:40:54.001Z,25.21
2018-06-19T11:41:54.009Z,25.20
2018-06-19T11:43:46.939Z,25.36
2018-06-19T11:44:47.043Z,25.45
2018-06-19T11:46:39.922Z,25.54
2018-06-19T11:47:39.929Z,25.52
2018-06-19T11:49:32.861Z,25.54
2018-06-19T11:50:32.893Z,25.55
2018-06-19T11:52:25.842Z,25.65
2018-06-19T11:53:25.852Z,25.77
2018-06-19T11:55:18.785Z,25.88
2018-06-19T11:56:18.819Z,25.97
2018-06-19T11:58:12.260Z,26.07
2018-06-19T11:59:12.271Z,26.10
2018-06-19T12:01:05.284Z,26.09
2018-06-19T12:02:05.230Z,26.21
2018-06-19T12:03:58.159Z,26.28
2018-06-19T12:04:58.197Z,26.29
2018-06-19T12:06:51.144Z,26.12
2018-06-19T12:07:51.152Z,26.21
2018-06-19T12:09:44.083Z,26.28
2018-06-19T12:10:44.115Z,26.40
2018-06-19T12:12:37.066Z,26.43
2018-06-19T12:13:37.075Z,26.44
2018-06-19T12:15:30.004Z,26.47
2018-06-19T12:16:30.036Z,26.51
2018-06-19T12:18:22.989Z,26.60
2018-06-19T12:19:22.996Z,26.63
2018-06-19T12:21:15.953Z,26.63
2018-06-19T12:22:15.962Z,26.15
2018-06-19T12:24:08.944Z,25.97
2018-06-19T12:25:08.925Z,25.91
2018-06-19T12:27:01.880Z,25.91
2018-06-19T12:28:01.891Z,26.07
2018-06-19T12:29:54.833Z,26.18
2018-06-19T12:30:54.861Z,26.20
2018-06-19T12:32:47.809Z,26.06
2018-06-19T12:33:47.820Z,25.92
2018-06-19T12:35:40.753Z,25.80
2018-06-19T12:36:40.780Z,25.70
2018-06-19T12:38:33.733Z,25.72
2018-06-19T12:39:33.740Z,25.64
2018-06-19T12:41:26.671Z,25.70
2018-06-19T12:42:26.698Z,25.82
2018-06-19T12:44:19.645Z,25.79
2018-06-19T12:45:19.658Z,25.90
2018-06-19T12:47:13.099Z,26.09
2018-06-19T12:48:13.113Z,26.28
2018-06-19T12:50:06.041Z,26.62
2018-06-19T12:51:06.077Z,26.63
2018-06-19T12:52:59.026Z,26.89
2018-06-19T12:53:59.041Z,27.04
2018-06-19T12:55:51.969Z,27.27
2018-06-19T12:56:52.003Z,27.17
2018-06-19T12:58:44.956Z,26.65
2018-06-19T12:59:44.969Z,26.44
2018-06-19T13:01:37.902Z,26.29
2018-06-19T13:02:37.934Z,26.35
2018-06-19T13:04:30.903Z,26.66
2018-06-19T13:05:30.902Z,26.72
2018-06-19T13:07:23.854Z,26.99
2018-06-19T13:08:23.865Z,27.06
2018-06-19T13:10:16.799Z,26.95
2018-06-19T13:11:16.839Z,26.95
2018-06-19T13:13:09.782Z,26.91
2018-06-19T13:14:09.792Z,27.04
2018-06-19T13:16:03.216Z,27.00
2018-06-19T13:17:03.250Z,26.95
2018-06-19T13:18:56.692Z,27.00
2018-06-19T13:19:56.712Z,27.00
2018-06-19T13:21:50.132Z,27.22
2018-06-19T13:22:50.164Z,27.27
2018-06-19T13:24:43.118Z,27.28
2018-06-19T13:25:43.126Z,27.40
2018-06-19T13:27:36.056Z,27.22
2018-06-19T13:28:36.090Z,27.27
2018-06-19T13:30:29.043Z,27.37
2018-06-19T13:31:29.054Z,27.41
2018-06-19T13:33:22.009Z,27.29
2018-06-19T13:34:22.022Z,27.40
2018-06-19T13:36:16.442Z,26.92
2018-06-19T13:37:16.474Z,27.06
2018-06-19T13:39:09.429Z,26.94
2018-06-19T13:40:09.436Z,27.04
2018-06-19T13:42:02.427Z,27.25
2018-06-19T13:43:02.403Z,27.27
2018-06-19T13:44:55.358Z,27.41
2018-06-19T13:45:55.361Z,27.41
2018-06-19T13:47:48.295Z,27.49
2018-06-19T13:48:48.324Z,27.60
2018-06-19T13:50:41.280Z,27.79
2018-06-19T13:51:41.292Z,27.78
2018-06-19T13:53:34.346Z,27.51
2018-06-19T13:54:34.358Z,27.57
2018-06-19T13:56:27.388Z,27.31
2018-06-19T13:57:27.544Z,27.31
2018-06-19T13:59:20.456Z,27.41
2018-06-19T14:00:20.473Z,27.32
2018-06-19T14:02:13.915Z,27.49
2018-06-19T14:03:13.943Z,27.49
2018-06-19T14:05:06.979Z,27.32
2018-06-19T14:06:06.993Z,27.25
2018-06-19T14:08:00.122Z,27.31
2018-06-19T14:09:00.051Z,27.36
2018-06-19T14:10:53.115Z,27.39
2018-06-19T14:11:53.111Z,27.44
2018-06-19T14:13:46.153Z,27.41
2018-06-19T14:14:46.165Z,27.44
2018-06-19T14:16:39.209Z,27.29
2018-06-19T14:17:39.223Z,27.28
2018-06-19T14:19:32.268Z,27.44
2018-06-19T14:20:32.281Z,27.44
2018-06-19T14:22:25.302Z,27.07
2018-06-19T14:23:25.346Z,26.99
2018-06-19T14:25:18.398Z,26.73
2018-06-19T14:26:18.388Z,26.66
2018-06-19T14:28:11.413Z,26.35
2018-06-19T14:29:11.446Z,26.25
2018-06-19T14:31:04.489Z,26.18
2018-06-19T14:32:04.499Z,26.25
2018-06-19T14:33:57.526Z,26.09
2018-06-19T14:34:57.557Z,25.90
2018-06-19T14:36:50.603Z,25.95
2018-06-19T14:37:50.616Z,26.12
2018-06-19T14:39:43.639Z,25.94
2018-06-19T14:40:43.671Z,26.09
2018-06-19T14:42:36.716Z,26.25
2018-06-19T14:43:36.725Z,26.30
2018-06-19T14:45:29.773Z,26.39
2018-06-19T14:46:29.782Z,26.43
2018-06-19T14:48:22.874Z,26.52
2018-06-19T14:49:22.846Z,26.62
2018-06-19T14:51:15.883Z,26.76
2018-06-19T14:52:15.896Z,26.92
2018-06-19T14:54:09.331Z,27.07
2018-06-19T14:55:09.361Z,27.25
2018-06-19T14:57:02.426Z,27.28
2018-06-19T14:58:02.429Z,27.34
2018-06-19T14:59:56.477Z,27.34
2018-06-19T15:00:56.514Z,27.47
2018-06-19T15:02:52.525Z,27.69
2018-06-19T15:03:52.540Z,27.62
2018-06-19T15:05:45.600Z,27.60
2018-06-19T15:06:45.596Z,27.67
2018-06-19T15:08:50.076Z,27.54
2018-06-19T15:09:48.658Z,27.39
2018-06-19T15:11:41.600Z,27.28
2018-06-19T15:12:41.607Z,27.19
2018-06-19T15:14:34.563Z,27.02
2018-06-19T15:15:34.587Z,27.03
2018-06-19T15:17:27.537Z,26.94
2018-06-19T15:18:27.604Z,26.87
2018-06-19T15:20:20.474Z,26.60
2018-06-19T15:21:20.504Z,26.66
2018-06-19T15:23:13.457Z,26.43
2018-06-19T15:24:13.465Z,26.44
2018-06-19T15:26:06.415Z,26.23
2018-06-19T15:27:06.420Z,26.32
2018-06-19T15:28:59.544Z,26.30
2018-06-19T15:29:59.574Z,26.30
2018-06-19T15:31:52.532Z,26.20
2018-06-19T15:32:52.553Z,26.21
2018-06-19T15:34:45.715Z,26.05
2018-06-19T15:35:45.761Z,26.06
2018-06-19T15:37:42.805Z,25.94
2018-06-19T15:38:40.217Z,25.90
2018-06-19T15:40:33.156Z,25.67
2018-06-19T15:41:33.202Z,25.62
2018-06-19T15:43:26.178Z,25.67
2018-06-19T15:44:26.163Z,25.62
2018-06-19T15:46:20.203Z,25.52
2018-06-19T15:47:19.112Z,25.45
2018-06-19T15:49:14.824Z,25.50
2018-06-19T15:50:14.833Z,25.46
2018-06-19T15:52:07.854Z,25.51
2018-06-19T15:53:07.835Z,25.47
2018-06-19T15:55:00.822Z,25.57
2018-06-19T15:56:00.787Z,25.61
2018-06-19T15:57:53.735Z,25.73
2018-06-19T15:58:53.789Z,25.80
2018-06-19T16:00:46.667Z,25.94
2018-06-19T16:01:46.697Z,25.97
2018-06-19T16:03:39.643Z,26.01
2018-06-19T16:04:39.650Z,25.90
2018-06-19T16:06:32.612Z,25.72
2018-06-19T16:07:32.601Z,25.65
2018-06-19T16:09:25.554Z,25.38
2018-06-19T16:10:25.559Z,25.03
2018-06-19T16:12:18.506Z,24.47
2018-06-19T16:13:18.511Z,24.47
2018-06-19T16:15:11.436Z,24.34
2018-06-19T16:16:11.460Z,24.16
2018-06-19T16:18:04.404Z,23.80
2018-06-19T16:19:04.410Z,23.90
2018-06-19T16:20:57.334Z,23.80
2018-06-19T16:21:57.372Z,23.70
2018-06-19T16:23:50.305Z,23.70
2018-06-19T16:24:50.312Z,23.70
2018-06-19T16:26:43.233Z,23.73
2018-06-19T16:27:43.295Z,23.76
2018-06-19T16:29:36.214Z,23.85
2018-06-19T16:30:36.210Z,23.94
2018-06-19T16:32:29.139Z,23.91
2018-06-19T16:33:29.160Z,24.02
2018-06-19T16:35:22.169Z,24.06
2018-06-19T16:36:22.115Z,24.03
2018-06-19T16:38:15.120Z,24.20
2018-06-19T16:39:15.132Z,24.24
2018-06-19T16:41:07.990Z,24.34
2018-06-19T16:42:08.018Z,24.35
2018-06-19T16:44:00.967Z,24.30
2018-06-19T16:45:00.971Z,24.25
2018-06-19T16:46:54.885Z,24.37
2018-06-19T16:47:54.916Z,24.42
2018-06-19T16:49:47.853Z,24.61
2018-06-19T16:50:47.865Z,24.53
2018-06-19T16:52:40.782Z,24.53
2018-06-19T16:53:40.844Z,24.55
2018-06-19T16:55:33.755Z,24.65
2018-06-19T16:56:33.760Z,24.60
2018-06-19T16:58:26.681Z,24.61
2018-06-19T16:59:26.710Z,24.65
2018-06-19T17:01:19.697Z,24.58
2018-06-19T17:02:19.659Z,24.60
2018-06-19T17:04:12.599Z,24.69
2018-06-19T17:05:12.610Z,24.77
2018-06-19T17:07:05.527Z,24.77
2018-06-19T17:08:05.558Z,24.73
2018-06-19T17:09:58.502Z,24.69
2018-06-19T17:10:58.509Z,24.71
2018-06-19T17:12:51.436Z,24.73
2018-06-19T17:13:51.653Z,24.62
2018-06-19T17:15:44.408Z,24.47
2018-06-19T17:16:44.414Z,24.52
2018-06-19T17:18:37.336Z,24.40
2018-06-19T17:19:37.364Z,24.39
2018-06-19T17:21:30.314Z,24.47
2018-06-19T17:22:30.317Z,24.55
2018-06-19T17:24:23.266Z,24.64
2018-06-19T17:25:23.267Z,24.61
2018-06-19T17:27:16.194Z,24.50
2018-06-19T17:28:16.219Z,24.61
2018-06-19T17:30:09.170Z,24.55
2018-06-19T17:31:09.171Z,24.49
2018-06-19T17:33:02.094Z,24.43
2018-06-19T17:34:02.125Z,24.42
2018-06-19T17:35:55.064Z,24.55
2018-06-19T17:36:55.073Z,24.57
2018-06-19T17:38:47.996Z,24.60
2018-06-19T17:39:48.023Z,24.47
2018-06-19T17:41:40.972Z,24.52
2018-06-19T17:42:40.974Z,24.55
2018-06-19T17:44:33.899Z,24.64
2018-06-19T17:45:33.926Z,24.49
2018-06-19T17:47:26.876Z,24.50
2018-06-19T17:48:26.882Z,24.34
2018-06-19T17:50:19.832Z,24.45
2018-06-19T17:51:19.835Z,24.37
2018-06-19T17:53:12.760Z,24.10
2018-06-19T17:54:12.791Z,23.85
2018-06-19T17:56:05.739Z,23.70
2018-06-19T17:57:05.744Z,23.60
2018-06-19T17:58:58.667Z,23.42
2018-06-19T17:59:58.695Z,23.25
2018-06-19T18:01:51.644Z,23.13
2018-06-19T18:02:51.652Z,22.91
2018-06-19T18:04:44.574Z,22.86
2018-06-19T18:05:44.603Z,22.70
2018-06-19T18:07:37.549Z,22.49
2018-06-19T18:08:37.552Z,22.51
2018-06-19T18:10:30.470Z,22.49
2018-06-19T18:11:30.499Z,22.51
2018-06-19T18:13:23.434Z,22.54
2018-06-19T18:14:23.439Z,22.67
2018-06-19T18:16:16.382Z,22.75
2018-06-19T18:17:16.388Z,22.77
2018-06-19T18:19:09.362Z,22.68
2018-06-19T18:20:09.339Z,22.77
2018-06-19T18:22:02.270Z,22.86
2018-06-19T18:23:02.279Z,22.85
2018-06-19T18:24:55.193Z,22.85
2018-06-19T18:25:55.223Z,22.80
2018-06-19T18:27:48.188Z,22.97
2018-06-19T18:28:48.194Z,22.95
2018-06-19T18:30:41.112Z,22.92
2018-06-19T18:31:41.142Z,22.92
2018-06-19T18:33:34.077Z,23.01